BAL220 LPPT-EGPF
Flight info
| Callsign | BAL220 |
|---|---|
| Flight time | 2h 45m |
| Altitude | 36000 |
| Route | IXIDA DCT DIVUT DCT PINEK/N0467F380 DCT KORUL DCT TULTA/M082F380 DCT TUVEN/N0472F390 DCT ELTIG DCT GURGA DCT ROTEV DCT GOTNA/N0447F250 P600 BLACA |
| Aircraft | B763/H-SDE3FGHIM3RWXY/LB1 |
Departure
| Time | 2026-05-07 12:12 |
|---|---|
| Airport | Lisbon Humberto Delgado Airport (LPPT) |
Arrival
| Time | 2026-05-07 14:57 |
|---|---|
| Airport | Glasgow Airport (EGPF) |
| Time | Latitude | Longitude | Altitude | Speed | Heading |
|---|---|---|---|---|---|
| 2026-05-07 11:35 | 38.77137 | -9.13629 | 388 ft | 0 kts | 198° |
| 2026-05-07 11:36 | 38.77136 | -9.13630 | 388 ft | 0 kts | 198° |
| 2026-05-07 11:37 | 38.77135 | -9.13630 | 388 ft | 0 kts | 198° |
| 2026-05-07 11:38 | 38.77134 | -9.13630 | 388 ft | 0 kts | 198° |
| 2026-05-07 11:39 | 38.77134 | -9.13631 | 388 ft | 0 kts | 198° |
| 2026-05-07 11:42 | 38.77133 | -9.13631 | 388 ft | 0 kts | 198° |
| 2026-05-07 11:44 | 38.77132 | -9.13631 | 388 ft | 0 kts | 198° |
| 2026-05-07 11:46 | 38.77132 | -9.13632 | 388 ft | 0 kts | 198° |
| 2026-05-07 11:46 | 38.77131 | -9.13632 | 388 ft | 0 kts | 198° |
| 2026-05-07 11:48 | 38.77130 | -9.13632 | 388 ft | 0 kts | 198° |
| 2026-05-07 11:50 | 38.77129 | -9.13632 | 388 ft | 0 kts | 198° |
| 2026-05-07 11:51 | 38.77129 | -9.13633 | 388 ft | 0 kts | 198° |
| 2026-05-07 11:52 | 38.77128 | -9.13633 | 388 ft | 0 kts | 198° |
| 2026-05-07 11:54 | 38.77127 | -9.13633 | 388 ft | 0 kts | 198° |
| 2026-05-07 11:55 | 38.77127 | -9.13634 | 388 ft | 0 kts | 198° |
| 2026-05-07 11:56 | 38.77126 | -9.13634 | 388 ft | 0 kts | 198° |
| 2026-05-07 11:58 | 38.77125 | -9.13634 | 388 ft | 0 kts | 198° |
| 2026-05-07 12:00 | 38.77124 | -9.13634 | 388 ft | 0 kts | 198° |
| 2026-05-07 12:00 | 38.77124 | -9.13635 | 388 ft | 0 kts | 198° |
| 2026-05-07 12:02 | 38.77123 | -9.13635 | 388 ft | 0 kts | 198° |
| 2026-05-07 12:03 | 38.77124 | -9.13635 | 388 ft | 1 kts | 198° |
| 2026-05-07 12:04 | 38.77137 | -9.13629 | 388 ft | 3 kts | 198° |
| 2026-05-07 12:04 | 38.77136 | -9.13628 | 388 ft | 1 kts | 178° |
| 2026-05-07 12:04 | 38.77135 | -9.13628 | 388 ft | 2 kts | 169° |
| 2026-05-07 12:04 | 38.77150 | -9.13631 | 388 ft | 3 kts | 169° |
| 2026-05-07 12:05 | 38.77169 | -9.13636 | 388 ft | 3 kts | 169° |
| 2026-05-07 12:05 | 38.77189 | -9.13640 | 388 ft | 3 kts | 169° |
| 2026-05-07 12:05 | 38.77209 | -9.13645 | 388 ft | 2 kts | 169° |
| 2026-05-07 12:05 | 38.77201 | -9.13648 | 388 ft | 2 kts | 209° |
| 2026-05-07 12:06 | 38.77196 | -9.13668 | 388 ft | 3 kts | 283° |
| 2026-05-07 12:06 | 38.77199 | -9.13687 | 388 ft | 0 kts | 266° |
| 2026-05-07 12:07 | 38.77199 | -9.13688 | 388 ft | 0 kts | 266° |
| 2026-05-07 12:08 | 38.77199 | -9.13721 | 388 ft | 6 kts | 270° |
| 2026-05-07 12:08 | 38.77198 | -9.13778 | 388 ft | 6 kts | 270° |
| 2026-05-07 12:08 | 38.77201 | -9.13826 | 388 ft | 7 kts | 274° |
| 2026-05-07 12:09 | 38.77176 | -9.13878 | 388 ft | 12 kts | 214° |
| 2026-05-07 12:09 | 38.77114 | -9.13915 | 388 ft | 8 kts | 200° |
| 2026-05-07 12:09 | 38.77045 | -9.13950 | 388 ft | 14 kts | 202° |
| 2026-05-07 12:09 | 38.76949 | -9.14001 | 388 ft | 14 kts | 202° |
| 2026-05-07 12:10 | 38.76875 | -9.14041 | 388 ft | 10 kts | 203° |
| 2026-05-07 12:10 | 38.76813 | -9.14074 | 388 ft | 10 kts | 202° |
| 2026-05-07 12:10 | 38.76748 | -9.14108 | 388 ft | 11 kts | 202° |
| 2026-05-07 12:10 | 38.76676 | -9.14148 | 388 ft | 12 kts | 203° |
| 2026-05-07 12:11 | 38.76635 | -9.14202 | 388 ft | 5 kts | 255° |
| 2026-05-07 12:11 | 38.76684 | -9.14290 | 388 ft | 21 kts | 338° |
| 2026-05-07 12:11 | 38.76851 | -9.14280 | 388 ft | 51 kts | 21° |
| 2026-05-07 12:11 | 38.77445 | -9.13971 | 388 ft | 132 kts | 21° |
| 2026-05-07 12:12 | 38.78510 | -9.13381 | 420 ft | 198 kts | 20° |
| 2026-05-07 12:12 | 38.79874 | -9.12624 | 1076 ft | 230 kts | 21° |
| 2026-05-07 12:12 | 38.81399 | -9.11697 | 1237 ft | 246 kts | 24° |
| 2026-05-07 12:12 | 38.82905 | -9.10663 | 1718 ft | 249 kts | 27° |
| 2026-05-07 12:13 | 38.84416 | -9.09556 | 2302 ft | 255 kts | 28° |
| 2026-05-07 12:13 | 38.85968 | -9.08386 | 2905 ft | 259 kts | 28° |
| 2026-05-07 12:13 | 38.87522 | -9.07198 | 3507 ft | 261 kts | 25° |
| 2026-05-07 12:13 | 38.89093 | -9.05960 | 4117 ft | 265 kts | 27° |
| 2026-05-07 12:14 | 38.90588 | -9.04561 | 4727 ft | 270 kts | 33° |
| 2026-05-07 12:14 | 38.92030 | -9.02971 | 5334 ft | 276 kts | 37° |
| 2026-05-07 12:14 | 38.93448 | -9.01300 | 5925 ft | 280 kts | 38° |
| 2026-05-07 12:14 | 38.94879 | -8.99578 | 6532 ft | 282 kts | 38° |
| 2026-05-07 12:15 | 38.96333 | -8.97832 | 7137 ft | 284 kts | 38° |
| 2026-05-07 12:15 | 38.97837 | -8.96211 | 7737 ft | 279 kts | 27° |
| 2026-05-07 12:15 | 38.99608 | -8.95305 | 8338 ft | 273 kts | 9° |
| 2026-05-07 12:15 | 39.01465 | -8.94945 | 8934 ft | 271 kts | 1° |
| 2026-05-07 12:16 | 39.03351 | -8.94828 | 9537 ft | 271 kts | 358° |
| 2026-05-07 12:16 | 39.05263 | -8.94753 | 10144 ft | 274 kts | 358° |
| 2026-05-07 12:16 | 39.07184 | -8.94642 | 10746 ft | 277 kts | 359° |
| 2026-05-07 12:16 | 39.09093 | -8.94509 | 11338 ft | 281 kts | 359° |
| 2026-05-07 12:17 | 39.11075 | -8.94347 | 11945 ft | 284 kts | 360° |
| 2026-05-07 12:17 | 39.13078 | -8.94151 | 12552 ft | 287 kts | 0° |
| 2026-05-07 12:17 | 39.15071 | -8.93945 | 13151 ft | 290 kts | 0° |
| 2026-05-07 12:17 | 39.16422 | -8.93806 | 13553 ft | 292 kts | 0° |
| 2026-05-07 12:18 | 39.18466 | -8.93595 | 14157 ft | 295 kts | 0° |
| 2026-05-07 12:18 | 39.20505 | -8.93382 | 14753 ft | 298 kts | 1° |
| 2026-05-07 12:18 | 39.22582 | -8.93135 | 15355 ft | 301 kts | 1° |
| 2026-05-07 12:18 | 39.24670 | -8.92868 | 15955 ft | 303 kts | 1° |
| 2026-05-07 12:19 | 39.26770 | -8.92599 | 16553 ft | 307 kts | 1° |
| 2026-05-07 12:19 | 39.28904 | -8.92326 | 17155 ft | 309 kts | 2° |
| 2026-05-07 12:19 | 39.31066 | -8.92052 | 17761 ft | 311 kts | 2° |
| 2026-05-07 12:19 | 39.33241 | -8.91781 | 18365 ft | 313 kts | 2° |
| 2026-05-07 12:20 | 39.35399 | -8.91519 | 18960 ft | 316 kts | 1° |
| 2026-05-07 12:20 | 39.37628 | -8.91260 | 19568 ft | 320 kts | 1° |
| 2026-05-07 12:20 | 39.39857 | -8.91009 | 20170 ft | 323 kts | 1° |
| 2026-05-07 12:20 | 39.42081 | -8.90738 | 20687 ft | 328 kts | 2° |
| 2026-05-07 12:21 | 39.44429 | -8.90434 | 20887 ft | 342 kts | 2° |
| 2026-05-07 12:21 | 39.46850 | -8.90125 | 21031 ft | 357 kts | 2° |
| 2026-05-07 12:21 | 39.49344 | -8.89818 | 21274 ft | 368 kts | 2° |
| 2026-05-07 12:21 | 39.51922 | -8.89514 | 21646 ft | 375 kts | 1° |
| 2026-05-07 12:22 | 39.54560 | -8.89210 | 22093 ft | 380 kts | 1° |
| 2026-05-07 12:22 | 39.57216 | -8.88883 | 22585 ft | 384 kts | 2° |
| 2026-05-07 12:22 | 39.59860 | -8.88529 | 23080 ft | 386 kts | 2° |
| 2026-05-07 12:22 | 39.62556 | -8.88168 | 23577 ft | 389 kts | 2° |
| 2026-05-07 12:23 | 39.65275 | -8.87817 | 24075 ft | 391 kts | 2° |
| 2026-05-07 12:23 | 39.67987 | -8.87483 | 24598 ft | 392 kts | 2° |
| 2026-05-07 12:23 | 39.70696 | -8.87150 | 25083 ft | 394 kts | 2° |
| 2026-05-07 12:23 | 39.73425 | -8.86798 | 25519 ft | 396 kts | 2° |
| 2026-05-07 12:24 | 39.76179 | -8.86429 | 25923 ft | 400 kts | 2° |
| 2026-05-07 12:24 | 39.78950 | -8.86053 | 26313 ft | 403 kts | 2° |
| 2026-05-07 12:24 | 39.81774 | -8.85683 | 26703 ft | 406 kts | 2° |
| 2026-05-07 12:24 | 39.84574 | -8.85340 | 27082 ft | 408 kts | 2° |
| 2026-05-07 12:25 | 39.87416 | -8.85013 | 27460 ft | 411 kts | 2° |
| 2026-05-07 12:25 | 39.90277 | -8.84700 | 27833 ft | 413 kts | 1° |
| 2026-05-07 12:25 | 39.93155 | -8.84373 | 28214 ft | 415 kts | 2° |
| 2026-05-07 12:25 | 39.96032 | -8.84031 | 28575 ft | 417 kts | 2° |
| 2026-05-07 12:26 | 39.98930 | -8.83673 | 28898 ft | 420 kts | 2° |
| 2026-05-07 12:26 | 40.01883 | -8.83288 | 29085 ft | 427 kts | 2° |
| 2026-05-07 12:26 | 40.04853 | -8.82906 | 29219 ft | 434 kts | 2° |
| 2026-05-07 12:26 | 40.08030 | -8.82506 | 29348 ft | 441 kts | 2° |
| 2026-05-07 12:27 | 40.11110 | -8.82097 | 29475 ft | 448 kts | 3° |
| 2026-05-07 12:27 | 40.14211 | -8.81678 | 29597 ft | 454 kts | 3° |
| 2026-05-07 12:27 | 40.17363 | -8.81275 | 29704 ft | 460 kts | 2° |
| 2026-05-07 12:27 | 40.20607 | -8.80886 | 29829 ft | 465 kts | 2° |
| 2026-05-07 12:28 | 40.23848 | -8.80520 | 29954 ft | 470 kts | 2° |
| 2026-05-07 12:28 | 40.27141 | -8.80152 | 30081 ft | 475 kts | 2° |
| 2026-05-07 12:28 | 40.30420 | -8.79771 | 30205 ft | 478 kts | 2° |
| 2026-05-07 12:28 | 40.33740 | -8.79388 | 30331 ft | 482 kts | 2° |
| 2026-05-07 12:29 | 40.37108 | -8.78946 | 30458 ft | 485 kts | 3° |
| 2026-05-07 12:29 | 40.40467 | -8.78471 | 30586 ft | 487 kts | 4° |
| 2026-05-07 12:29 | 40.43864 | -8.78003 | 30715 ft | 490 kts | 3° |
| 2026-05-07 12:29 | 40.47245 | -8.77554 | 30844 ft | 491 kts | 3° |
| 2026-05-07 12:30 | 40.50657 | -8.77120 | 30991 ft | 493 kts | 3° |
| 2026-05-07 12:30 | 40.54072 | -8.76703 | 31131 ft | 494 kts | 2° |
| 2026-05-07 12:30 | 40.57501 | -8.76302 | 31279 ft | 495 kts | 2° |
| 2026-05-07 12:30 | 40.60941 | -8.75916 | 31424 ft | 495 kts | 2° |
| 2026-05-07 12:31 | 40.64357 | -8.75517 | 31551 ft | 497 kts | 2° |
| 2026-05-07 12:31 | 40.67845 | -8.75056 | 31688 ft | 498 kts | 3° |
| 2026-05-07 12:31 | 40.71274 | -8.74578 | 31820 ft | 498 kts | 4° |
| 2026-05-07 12:31 | 40.74732 | -8.74084 | 31956 ft | 499 kts | 4° |
| 2026-05-07 12:32 | 40.78179 | -8.73601 | 32086 ft | 499 kts | 4° |
| 2026-05-07 12:32 | 40.81623 | -8.73137 | 32211 ft | 499 kts | 3° |
| 2026-05-07 12:32 | 40.85064 | -8.72691 | 32336 ft | 499 kts | 3° |
| 2026-05-07 12:32 | 40.88535 | -8.72261 | 32463 ft | 499 kts | 2° |
| 2026-05-07 12:33 | 40.95486 | -8.71450 | 32716 ft | 499 kts | 2° |
| 2026-05-07 12:33 | 40.98939 | -8.71052 | 32841 ft | 498 kts | 2° |
| 2026-05-07 12:33 | 41.02382 | -8.70648 | 32977 ft | 498 kts | 2° |
| 2026-05-07 12:34 | 41.05816 | -8.70217 | 33159 ft | 496 kts | 3° |
| 2026-05-07 12:34 | 41.09231 | -8.69732 | 33323 ft | 495 kts | 4° |
| 2026-05-07 12:34 | 41.12675 | -8.69237 | 33458 ft | 494 kts | 3° |
| 2026-05-07 12:34 | 41.16079 | -8.68767 | 33584 ft | 493 kts | 3° |
| 2026-05-07 12:35 | 41.19513 | -8.68309 | 33711 ft | 492 kts | 3° |
| 2026-05-07 12:35 | 41.22924 | -8.67873 | 33836 ft | 491 kts | 2° |
| 2026-05-07 12:35 | 41.26302 | -8.67460 | 33960 ft | 490 kts | 2° |
| 2026-05-07 12:35 | 41.29691 | -8.67066 | 34085 ft | 489 kts | 2° |
| 2026-05-07 12:36 | 41.33092 | -8.66672 | 34211 ft | 487 kts | 2° |
| 2026-05-07 12:36 | 41.36454 | -8.66268 | 34336 ft | 486 kts | 3° |
| 2026-05-07 12:36 | 41.39817 | -8.65804 | 34462 ft | 485 kts | 4° |
| 2026-05-07 12:36 | 41.43182 | -8.65310 | 34588 ft | 484 kts | 4° |
| 2026-05-07 12:37 | 41.46565 | -8.64834 | 34714 ft | 483 kts | 3° |
| 2026-05-07 12:37 | 41.49883 | -8.64389 | 34818 ft | 482 kts | 3° |
| 2026-05-07 12:37 | 41.56549 | -8.63550 | 34981 ft | 481 kts | 2° |
| 2026-05-07 12:38 | 41.59857 | -8.63159 | 35113 ft | 480 kts | 2° |
| 2026-05-07 12:38 | 41.63201 | -8.62752 | 35239 ft | 478 kts | 2° |
| 2026-05-07 12:38 | 41.66504 | -8.62330 | 35368 ft | 477 kts | 3° |
| 2026-05-07 12:38 | 41.69822 | -8.61899 | 35488 ft | 475 kts | 3° |
| 2026-05-07 12:39 | 41.76381 | -8.61010 | 35580 ft | 476 kts | 3° |
| 2026-05-07 12:39 | 41.83023 | -8.60065 | 35593 ft | 478 kts | 3° |
| 2026-05-07 12:40 | 41.89675 | -8.59399 | 35593 ft | 479 kts | 359° |
| 2026-05-07 12:40 | 41.96355 | -8.59256 | 35593 ft | 480 kts | 358° |
| 2026-05-07 12:41 | 42.03026 | -8.59197 | 35594 ft | 482 kts | 358° |
| 2026-05-07 12:41 | 42.09768 | -8.59059 | 35595 ft | 484 kts | 358° |
| 2026-05-07 12:42 | 42.16500 | -8.58868 | 35597 ft | 485 kts | 359° |
| 2026-05-07 12:42 | 42.23225 | -8.58639 | 35598 ft | 486 kts | 359° |
| 2026-05-07 12:43 | 42.30022 | -8.58437 | 35598 ft | 487 kts | 359° |
| 2026-05-07 12:43 | 42.36809 | -8.58195 | 35599 ft | 489 kts | 359° |
| 2026-05-07 12:44 | 42.43476 | -8.57876 | 35600 ft | 460 kts | 359° |
| 2026-05-07 12:44 | 42.48777 | -8.57649 | 35601 ft | 454 kts | 359° |
| 2026-05-07 12:45 | 42.55104 | -8.57455 | 35602 ft | 459 kts | 358° |
| 2026-05-07 12:45 | 42.61531 | -8.57334 | 35601 ft | 463 kts | 358° |
| 2026-05-07 12:46 | 42.64273 | -8.57274 | 35602 ft | 465 kts | 358° |
| 2026-05-07 12:47 | 42.66877 | -8.57205 | 35655 ft | 465 kts | 359° |
| 2026-05-07 12:48 | 42.72280 | -8.57047 | 35871 ft | 461 kts | 359° |
| 2026-05-07 12:48 | 42.78688 | -8.56811 | 35986 ft | 463 kts | 359° |
| 2026-05-07 12:49 | 42.85145 | -8.56623 | 35998 ft | 466 kts | 358° |
| 2026-05-07 12:49 | 42.88731 | -8.56503 | 36000 ft | 468 kts | 359° |
| 2026-05-07 12:50 | 42.93674 | -8.56272 | 36000 ft | 471 kts | 359° |
| 2026-05-07 12:50 | 43.00234 | -8.55950 | 36000 ft | 467 kts | 359° |
| 2026-05-07 12:51 | 43.06703 | -8.55672 | 36002 ft | 466 kts | 359° |
| 2026-05-07 12:51 | 43.13155 | -8.55468 | 36001 ft | 464 kts | 358° |
| 2026-05-07 12:52 | 43.19622 | -8.55335 | 36002 ft | 464 kts | 358° |
| 2026-05-07 12:52 | 43.26071 | -8.55176 | 36002 ft | 467 kts | 358° |
| 2026-05-07 12:53 | 43.32618 | -8.55007 | 36002 ft | 469 kts | 358° |
| 2026-05-07 12:53 | 43.39143 | -8.54814 | 36003 ft | 467 kts | 359° |
| 2026-05-07 12:54 | 43.45623 | -8.54512 | 36003 ft | 466 kts | 359° |
| 2026-05-07 12:54 | 43.52092 | -8.54217 | 36004 ft | 464 kts | 359° |
| 2026-05-07 12:55 | 43.58581 | -8.53969 | 36006 ft | 466 kts | 359° |
| 2026-05-07 12:55 | 43.65091 | -8.53768 | 36006 ft | 470 kts | 358° |
| 2026-05-07 12:56 | 43.71602 | -8.53629 | 36006 ft | 468 kts | 358° |
| 2026-05-07 12:56 | 43.78092 | -8.53478 | 36006 ft | 466 kts | 359° |
| 2026-05-07 12:57 | 43.84593 | -8.53231 | 36087 ft | 466 kts | 359° |
| 2026-05-07 12:57 | 43.87829 | -8.53069 | 36210 ft | 465 kts | 359° |
| 2026-05-07 12:57 | 43.91072 | -8.52921 | 36336 ft | 464 kts | 359° |
| 2026-05-07 12:58 | 43.94262 | -8.52802 | 36460 ft | 463 kts | 359° |
| 2026-05-07 12:58 | 43.97511 | -8.52704 | 36587 ft | 461 kts | 358° |
| 2026-05-07 12:58 | 44.00693 | -8.52630 | 36712 ft | 460 kts | 358° |
| 2026-05-07 12:58 | 44.03904 | -8.52571 | 36840 ft | 459 kts | 358° |
| 2026-05-07 12:59 | 44.07110 | -8.52494 | 36971 ft | 458 kts | 359° |
| 2026-05-07 12:59 | 44.10276 | -8.52359 | 37086 ft | 458 kts | 359° |
| 2026-05-07 12:59 | 44.13453 | -8.52197 | 37200 ft | 457 kts | 359° |
| 2026-05-07 12:59 | 44.16639 | -8.52034 | 37297 ft | 457 kts | 359° |
| 2026-05-07 13:00 | 44.22988 | -8.51719 | 37479 ft | 456 kts | 359° |
| 2026-05-07 13:00 | 44.29364 | -8.51450 | 37656 ft | 456 kts | 359° |
| 2026-05-07 13:01 | 44.32515 | -8.51361 | 37771 ft | 454 kts | 358° |
| 2026-05-07 13:01 | 44.35682 | -8.51301 | 37893 ft | 453 kts | 358° |
| 2026-05-07 13:01 | 44.41962 | -8.51167 | 37989 ft | 455 kts | 358° |
| 2026-05-07 13:02 | 44.48311 | -8.50969 | 37998 ft | 458 kts | 359° |
| 2026-05-07 13:02 | 44.54720 | -8.50778 | 38153 ft | 456 kts | 358° |
| 2026-05-07 13:03 | 44.57845 | -8.50705 | 38277 ft | 454 kts | 358° |
| 2026-05-07 13:03 | 44.61041 | -8.50610 | 38404 ft | 453 kts | 359° |
| 2026-05-07 13:03 | 44.64152 | -8.50460 | 38528 ft | 451 kts | 359° |
| 2026-05-07 13:03 | 44.67270 | -8.50297 | 38653 ft | 449 kts | 359° |
| 2026-05-07 13:04 | 44.70383 | -8.50136 | 38778 ft | 448 kts | 359° |
| 2026-05-07 13:04 | 44.73518 | -8.49981 | 38878 ft | 447 kts | 359° |
| 2026-05-07 13:04 | 44.79702 | -8.49703 | 39057 ft | 445 kts | 359° |
| 2026-05-07 13:05 | 44.82837 | -8.49581 | 39162 ft | 444 kts | 359° |
| 2026-05-07 13:05 | 44.85911 | -8.49481 | 39260 ft | 443 kts | 358° |
| 2026-05-07 13:05 | 44.92033 | -8.49340 | 39468 ft | 440 kts | 358° |
| 2026-05-07 13:06 | 44.95094 | -8.49279 | 39581 ft | 438 kts | 358° |
| 2026-05-07 13:06 | 44.98121 | -8.49198 | 39712 ft | 437 kts | 359° |
| 2026-05-07 13:06 | 45.01174 | -8.49086 | 39841 ft | 435 kts | 359° |
| 2026-05-07 13:06 | 45.04196 | -8.48956 | 39924 ft | 434 kts | 359° |
| 2026-05-07 13:07 | 45.10224 | -8.48712 | 39981 ft | 435 kts | 359° |
| 2026-05-07 13:07 | 45.16290 | -8.48501 | 39995 ft | 437 kts | 358° |
| 2026-05-07 13:08 | 45.22402 | -8.48346 | 39998 ft | 439 kts | 358° |
| 2026-05-07 13:08 | 45.28510 | -8.48202 | 40001 ft | 441 kts | 359° |
| 2026-05-07 13:09 | 45.34648 | -8.47913 | 40043 ft | 441 kts | 359° |
| 2026-05-07 13:09 | 45.37700 | -8.47752 | 40161 ft | 439 kts | 359° |
| 2026-05-07 13:09 | 45.40759 | -8.47590 | 40289 ft | 437 kts | 359° |
| 2026-05-07 13:10 | 45.43805 | -8.47432 | 40412 ft | 435 kts | 359° |
| 2026-05-07 13:10 | 45.46811 | -8.47291 | 40539 ft | 433 kts | 359° |
| 2026-05-07 13:10 | 45.49818 | -8.47168 | 40654 ft | 431 kts | 359° |
| 2026-05-07 13:10 | 45.52798 | -8.47066 | 40779 ft | 428 kts | 358° |
| 2026-05-07 13:11 | 45.55785 | -8.46984 | 40899 ft | 426 kts | 358° |
| 2026-05-07 13:11 | 45.58734 | -8.46921 | 41024 ft | 424 kts | 358° |
| 2026-05-07 13:11 | 45.61689 | -8.46849 | 41146 ft | 422 kts | 359° |
| 2026-05-07 13:11 | 45.64608 | -8.46748 | 41286 ft | 419 kts | 359° |
| 2026-05-07 13:12 | 45.67539 | -8.46628 | 41419 ft | 416 kts | 359° |
| 2026-05-07 13:12 | 45.70393 | -8.46491 | 41537 ft | 414 kts | 359° |
| 2026-05-07 13:12 | 45.70428 | -8.46489 | 41539 ft | 414 kts | 359° |
| 2026-05-07 13:13 | 45.74562 | -8.46277 | 41695 ft | 410 kts | 359° |
| 2026-05-07 13:13 | 45.77379 | -8.46159 | 41822 ft | 407 kts | 359° |
| 2026-05-07 13:13 | 45.80225 | -8.46062 | 41932 ft | 404 kts | 358° |
| 2026-05-07 13:14 | 45.85854 | -8.45930 | 41991 ft | 402 kts | 358° |
| 2026-05-07 13:14 | 45.91429 | -8.45811 | 41997 ft | 402 kts | 358° |
| 2026-05-07 13:15 | 45.97059 | -8.45605 | 41999 ft | 402 kts | 358° |
| 2026-05-07 13:15 | 46.01724 | -8.45407 | 41998 ft | 401 kts | 358° |
| 2026-05-07 13:16 | 46.04503 | -8.45297 | 41888 ft | 405 kts | 358° |
| 2026-05-07 13:16 | 46.07350 | -8.45200 | 41302 ft | 421 kts | 358° |
| 2026-05-07 13:16 | 46.10325 | -8.45126 | 40631 ft | 432 kts | 358° |
| 2026-05-07 13:16 | 46.13358 | -8.45061 | 40295 ft | 424 kts | 358° |
| 2026-05-07 13:17 | 46.16267 | -8.44977 | 40133 ft | 423 kts | 358° |
| 2026-05-07 13:17 | 46.19244 | -8.44844 | 40038 ft | 427 kts | 359° |
| 2026-05-07 13:17 | 46.25180 | -8.44535 | 40011 ft | 430 kts | 359° |
| 2026-05-07 13:18 | 46.31163 | -8.44237 | 40006 ft | 431 kts | 359° |
| 2026-05-07 13:18 | 46.37170 | -8.44007 | 40005 ft | 433 kts | 359° |
| 2026-05-07 13:19 | 46.43219 | -8.43857 | 40007 ft | 434 kts | 358° |
| 2026-05-07 13:19 | 46.49252 | -8.43721 | 40005 ft | 435 kts | 358° |
| 2026-05-07 13:20 | 46.55367 | -8.43487 | 40005 ft | 437 kts | 359° |
| 2026-05-07 13:20 | 46.61422 | -8.43156 | 40006 ft | 438 kts | 359° |
| 2026-05-07 13:21 | 46.67515 | -8.42849 | 40005 ft | 438 kts | 359° |
| 2026-05-07 13:21 | 46.73642 | -8.42596 | 40006 ft | 439 kts | 359° |
| 2026-05-07 13:22 | 46.79760 | -8.42407 | 40006 ft | 440 kts | 358° |
| 2026-05-07 13:22 | 46.85863 | -8.42269 | 40005 ft | 440 kts | 358° |
| 2026-05-07 13:23 | 46.91975 | -8.42107 | 40001 ft | 441 kts | 359° |
| 2026-05-07 13:23 | 46.98143 | -8.41845 | 40002 ft | 441 kts | 359° |
| 2026-05-07 13:24 | 47.04274 | -8.41516 | 40003 ft | 442 kts | 359° |
| 2026-05-07 13:24 | 47.10426 | -8.41256 | 40005 ft | 442 kts | 359° |
| 2026-05-07 13:25 | 47.16585 | -8.41090 | 40004 ft | 442 kts | 358° |
| 2026-05-07 13:25 | 47.22737 | -8.40932 | 40005 ft | 442 kts | 359° |
| 2026-05-07 13:26 | 47.28883 | -8.40627 | 40005 ft | 443 kts | 359° |
| 2026-05-07 13:26 | 47.35022 | -8.40295 | 40006 ft | 443 kts | 359° |
| 2026-05-07 13:27 | 47.41210 | -8.39997 | 40005 ft | 443 kts | 359° |
| 2026-05-07 13:27 | 47.47360 | -8.39759 | 40006 ft | 443 kts | 358° |
| 2026-05-07 13:28 | 47.53531 | -8.39587 | 40005 ft | 443 kts | 358° |
| 2026-05-07 13:28 | 47.59690 | -8.39413 | 40005 ft | 443 kts | 359° |
| 2026-05-07 13:29 | 47.65843 | -8.39119 | 40003 ft | 444 kts | 359° |
| 2026-05-07 13:29 | 47.72037 | -8.38775 | 40003 ft | 444 kts | 359° |
| 2026-05-07 13:30 | 47.78203 | -8.38480 | 40000 ft | 444 kts | 359° |
| 2026-05-07 13:30 | 47.84359 | -8.38303 | 40001 ft | 444 kts | 358° |
| 2026-05-07 13:31 | 47.90532 | -8.38109 | 40002 ft | 444 kts | 359° |
| 2026-05-07 13:31 | 47.96742 | -8.37890 | 40004 ft | 444 kts | 358° |
| 2026-05-07 13:32 | 48.02912 | -8.37721 | 40006 ft | 444 kts | 358° |
| 2026-05-07 13:32 | 48.09103 | -8.37527 | 40006 ft | 445 kts | 359° |
| 2026-05-07 13:33 | 48.15295 | -8.37209 | 40004 ft | 445 kts | 359° |
| 2026-05-07 13:33 | 48.21475 | -8.36897 | 40005 ft | 445 kts | 359° |
| 2026-05-07 13:34 | 48.30748 | -8.36526 | 40004 ft | 445 kts | 358° |
| 2026-05-07 13:35 | 48.36963 | -8.36357 | 40003 ft | 445 kts | 358° |
| 2026-05-07 13:35 | 48.43145 | -8.36143 | 40004 ft | 445 kts | 359° |
| 2026-05-07 13:36 | 48.49352 | -8.35791 | 40007 ft | 446 kts | 359° |
| 2026-05-07 13:36 | 48.55558 | -8.35496 | 40004 ft | 446 kts | 359° |
| 2026-05-07 13:37 | 48.61746 | -8.35296 | 40006 ft | 445 kts | 358° |
| 2026-05-07 13:37 | 48.67979 | -8.35133 | 40006 ft | 446 kts | 359° |
| 2026-05-07 13:38 | 48.74179 | -8.34805 | 40005 ft | 446 kts | 359° |
| 2026-05-07 13:38 | 48.80348 | -8.34453 | 40004 ft | 446 kts | 359° |
| 2026-05-07 13:39 | 48.86566 | -8.34157 | 40004 ft | 446 kts | 359° |
| 2026-05-07 13:39 | 48.92793 | -8.33930 | 40002 ft | 446 kts | 358° |
| 2026-05-07 13:40 | 48.98980 | -8.33772 | 40002 ft | 446 kts | 358° |
| 2026-05-07 13:40 | 49.05193 | -8.33553 | 40004 ft | 447 kts | 359° |
| 2026-05-07 13:41 | 49.11426 | -8.33211 | 40004 ft | 447 kts | 360° |
| 2026-05-07 13:41 | 49.17629 | -8.32842 | 40006 ft | 447 kts | 359° |
| 2026-05-07 13:42 | 49.23842 | -8.32535 | 40006 ft | 446 kts | 359° |
| 2026-05-07 13:42 | 49.30089 | -8.32371 | 40005 ft | 446 kts | 358° |
| 2026-05-07 13:43 | 49.36253 | -8.32219 | 40004 ft | 446 kts | 358° |
| 2026-05-07 13:43 | 49.42487 | -8.32037 | 40003 ft | 447 kts | 359° |
| 2026-05-07 13:44 | 49.48681 | -8.31695 | 40006 ft | 447 kts | 359° |
| 2026-05-07 13:44 | 49.54906 | -8.31386 | 40005 ft | 447 kts | 359° |
| 2026-05-07 13:45 | 49.61146 | -8.31095 | 40006 ft | 447 kts | 359° |
| 2026-05-07 13:45 | 49.67382 | -8.30721 | 40005 ft | 447 kts | 359° |
| 2026-05-07 13:46 | 49.73606 | -8.30431 | 40005 ft | 447 kts | 358° |
| 2026-05-07 13:46 | 49.79813 | -8.30250 | 40005 ft | 448 kts | 359° |
| 2026-05-07 13:47 | 49.86057 | -8.29950 | 40006 ft | 448 kts | 359° |
| 2026-05-07 13:47 | 49.92260 | -8.29620 | 40005 ft | 448 kts | 359° |
| 2026-05-07 13:48 | 49.98514 | -8.29413 | 40005 ft | 447 kts | 358° |
| 2026-05-07 13:48 | 50.04735 | -8.29207 | 40006 ft | 448 kts | 359° |
| 2026-05-07 13:49 | 50.10976 | -8.28987 | 40006 ft | 447 kts | 358° |
| 2026-05-07 13:49 | 50.16156 | -8.28834 | 40003 ft | 448 kts | 358° |
| 2026-05-07 13:50 | 50.22384 | -8.28579 | 40004 ft | 448 kts | 359° |
| 2026-05-07 13:50 | 50.29647 | -8.28144 | 40005 ft | 448 kts | 359° |
| 2026-05-07 13:51 | 50.34881 | -8.27883 | 40006 ft | 448 kts | 359° |
| 2026-05-07 13:51 | 50.41109 | -8.27625 | 40005 ft | 449 kts | 358° |
| 2026-05-07 13:52 | 50.47344 | -8.27438 | 40005 ft | 449 kts | 358° |
| 2026-05-07 13:52 | 50.53579 | -8.27176 | 40004 ft | 449 kts | 359° |
| 2026-05-07 13:53 | 50.59859 | -8.26794 | 39998 ft | 449 kts | 359° |
| 2026-05-07 13:53 | 50.66107 | -8.26415 | 39999 ft | 449 kts | 359° |
| 2026-05-07 13:54 | 50.72337 | -8.26127 | 40001 ft | 449 kts | 359° |
| 2026-05-07 13:54 | 50.78639 | -8.25944 | 40003 ft | 449 kts | 358° |
| 2026-05-07 13:55 | 50.84878 | -8.25764 | 40005 ft | 449 kts | 359° |
| 2026-05-07 13:55 | 50.91135 | -8.25491 | 40006 ft | 449 kts | 359° |
| 2026-05-07 13:56 | 50.97375 | -8.25141 | 40004 ft | 449 kts | 359° |
| 2026-05-07 13:56 | 51.03534 | -8.23679 | 40004 ft | 454 kts | 13° |
| 2026-05-07 13:57 | 51.09586 | -8.20406 | 40002 ft | 457 kts | 17° |
| 2026-05-07 13:57 | 51.15507 | -8.16919 | 40003 ft | 457 kts | 17° |
| 2026-05-07 13:58 | 51.21489 | -8.13403 | 40002 ft | 457 kts | 17° |
| 2026-05-07 13:58 | 51.27486 | -8.09975 | 40002 ft | 456 kts | 16° |
| 2026-05-07 13:59 | 51.33492 | -8.06676 | 40003 ft | 456 kts | 15° |
| 2026-05-07 13:59 | 51.39527 | -8.03456 | 40004 ft | 456 kts | 15° |
| 2026-05-07 14:00 | 51.45533 | -8.00201 | 40004 ft | 456 kts | 15° |
| 2026-05-07 14:00 | 51.51585 | -7.96913 | 40006 ft | 456 kts | 16° |
| 2026-05-07 14:01 | 51.57527 | -7.93507 | 40005 ft | 456 kts | 17° |
| 2026-05-07 14:01 | 51.63528 | -7.90066 | 40006 ft | 456 kts | 16° |
| 2026-05-07 14:02 | 51.69510 | -7.86710 | 40006 ft | 456 kts | 16° |
| 2026-05-07 14:02 | 51.75556 | -7.83384 | 40005 ft | 456 kts | 17° |
| 2026-05-07 14:03 | 51.81436 | -7.79505 | 40006 ft | 458 kts | 21° |
| 2026-05-07 14:03 | 51.87214 | -7.75186 | 40005 ft | 459 kts | 21° |
| 2026-05-07 14:04 | 51.93035 | -7.70920 | 40005 ft | 459 kts | 21° |
| 2026-05-07 14:04 | 51.98932 | -7.66729 | 40005 ft | 459 kts | 20° |
| 2026-05-07 14:05 | 52.04769 | -7.62613 | 40006 ft | 459 kts | 21° |
| 2026-05-07 14:05 | 52.10574 | -7.58309 | 40005 ft | 460 kts | 21° |
| 2026-05-07 14:06 | 52.16425 | -7.53948 | 40005 ft | 459 kts | 21° |
| 2026-05-07 14:06 | 52.22226 | -7.49712 | 40005 ft | 459 kts | 21° |
| 2026-05-07 14:07 | 52.28088 | -7.45532 | 40003 ft | 459 kts | 20° |
| 2026-05-07 14:07 | 52.33027 | -7.42028 | 40005 ft | 459 kts | 20° |
| 2026-05-07 14:08 | 52.38865 | -7.37812 | 40006 ft | 460 kts | 21° |
| 2026-05-07 14:08 | 52.44693 | -7.33430 | 40006 ft | 460 kts | 21° |
| 2026-05-07 14:08 | 52.47613 | -7.31222 | 39809 ft | 458 kts | 21° |
| 2026-05-07 14:09 | 52.50476 | -7.29062 | 39139 ft | 457 kts | 21° |
| 2026-05-07 14:09 | 52.53401 | -7.26869 | 38095 ft | 464 kts | 21° |
| 2026-05-07 14:09 | 52.56317 | -7.24702 | 37422 ft | 461 kts | 21° |
| 2026-05-07 14:09 | 52.59228 | -7.22557 | 37015 ft | 452 kts | 21° |
| 2026-05-07 14:10 | 52.62093 | -7.20463 | 36665 ft | 442 kts | 21° |
| 2026-05-07 14:10 | 52.64861 | -7.18457 | 36341 ft | 432 kts | 20° |
| 2026-05-07 14:10 | 52.67574 | -7.16499 | 36168 ft | 421 kts | 20° |
| 2026-05-07 14:10 | 52.70243 | -7.14566 | 36055 ft | 419 kts | 20° |
| 2026-05-07 14:11 | 52.72936 | -7.12594 | 36019 ft | 424 kts | 21° |
| 2026-05-07 14:11 | 52.78386 | -7.08420 | 36005 ft | 434 kts | 21° |
| 2026-05-07 14:12 | 52.83848 | -7.04314 | 36006 ft | 437 kts | 21° |
| 2026-05-07 14:12 | 52.89394 | -7.00235 | 36006 ft | 437 kts | 21° |
| 2026-05-07 14:13 | 52.94936 | -6.96011 | 36006 ft | 439 kts | 22° |
| 2026-05-07 14:13 | 53.00498 | -6.91698 | 35883 ft | 444 kts | 21° |
| 2026-05-07 14:13 | 53.03364 | -6.89502 | 35561 ft | 456 kts | 21° |
| 2026-05-07 14:14 | 53.06258 | -6.87308 | 35217 ft | 465 kts | 21° |
| 2026-05-07 14:14 | 53.09204 | -6.85097 | 34869 ft | 469 kts | 21° |
| 2026-05-07 14:14 | 53.12197 | -6.82856 | 34517 ft | 469 kts | 21° |
| 2026-05-07 14:14 | 53.15164 | -6.80551 | 34165 ft | 467 kts | 22° |
| 2026-05-07 14:15 | 53.18068 | -6.78187 | 33814 ft | 463 kts | 23° |
| 2026-05-07 14:15 | 53.20962 | -6.75773 | 33458 ft | 458 kts | 24° |
| 2026-05-07 14:15 | 53.23772 | -6.73392 | 33110 ft | 454 kts | 24° |
| 2026-05-07 14:15 | 53.26565 | -6.71030 | 32762 ft | 451 kts | 24° |
| 2026-05-07 14:16 | 53.29340 | -6.68705 | 32414 ft | 447 kts | 23° |
| 2026-05-07 14:16 | 53.32144 | -6.66377 | 32062 ft | 444 kts | 23° |
| 2026-05-07 14:16 | 53.34924 | -6.64089 | 31710 ft | 442 kts | 23° |
| 2026-05-07 14:16 | 53.37673 | -6.61845 | 31360 ft | 440 kts | 22° |
| 2026-05-07 14:17 | 53.40426 | -6.59615 | 31010 ft | 439 kts | 22° |
| 2026-05-07 14:17 | 53.43185 | -6.57354 | 30657 ft | 437 kts | 23° |
| 2026-05-07 14:17 | 53.45865 | -6.55090 | 30310 ft | 435 kts | 24° |
| 2026-05-07 14:17 | 53.47686 | -6.53527 | 30073 ft | 435 kts | 24° |
| 2026-05-07 14:18 | 53.50411 | -6.51196 | 29719 ft | 433 kts | 24° |
| 2026-05-07 14:18 | 53.53052 | -6.48959 | 29373 ft | 429 kts | 23° |
| 2026-05-07 14:18 | 53.55726 | -6.46680 | 29021 ft | 426 kts | 24° |
| 2026-05-07 14:18 | 53.58337 | -6.44429 | 28673 ft | 424 kts | 24° |
| 2026-05-07 14:19 | 53.60989 | -6.42158 | 28319 ft | 421 kts | 24° |
| 2026-05-07 14:19 | 53.63596 | -6.39945 | 27969 ft | 419 kts | 23° |
| 2026-05-07 14:19 | 53.66167 | -6.37779 | 27622 ft | 417 kts | 23° |
| 2026-05-07 14:19 | 53.68787 | -6.35588 | 27269 ft | 415 kts | 23° |
| 2026-05-07 14:20 | 53.71395 | -6.33423 | 26915 ft | 413 kts | 22° |
| 2026-05-07 14:20 | 53.73942 | -6.31324 | 26569 ft | 411 kts | 22° |
| 2026-05-07 14:20 | 53.76518 | -6.29196 | 26216 ft | 408 kts | 22° |
| 2026-05-07 14:20 | 53.79106 | -6.27036 | 25858 ft | 405 kts | 22° |
| 2026-05-07 14:21 | 53.81624 | -6.24936 | 25509 ft | 402 kts | 23° |
| 2026-05-07 14:21 | 53.84134 | -6.22824 | 25156 ft | 400 kts | 23° |
| 2026-05-07 14:21 | 53.86603 | -6.20740 | 24807 ft | 398 kts | 23° |
| 2026-05-07 14:21 | 53.89049 | -6.18594 | 24457 ft | 395 kts | 24° |
| 2026-05-07 14:22 | 53.91488 | -6.16439 | 24107 ft | 394 kts | 24° |
| 2026-05-07 14:22 | 53.93916 | -6.14317 | 23757 ft | 393 kts | 24° |
| 2026-05-07 14:22 | 53.96372 | -6.12190 | 23402 ft | 391 kts | 23° |
| 2026-05-07 14:22 | 53.98768 | -6.10132 | 23055 ft | 388 kts | 23° |
| 2026-05-07 14:23 | 54.01172 | -6.08082 | 22704 ft | 385 kts | 23° |
| 2026-05-07 14:23 | 54.03580 | -6.06045 | 22351 ft | 384 kts | 22° |
| 2026-05-07 14:23 | 54.05982 | -6.04040 | 22000 ft | 384 kts | 22° |
| 2026-05-07 14:23 | 54.08393 | -6.02040 | 21647 ft | 383 kts | 22° |
| 2026-05-07 14:24 | 54.10805 | -6.00063 | 21295 ft | 382 kts | 22° |
| 2026-05-07 14:24 | 54.13191 | -5.98125 | 20945 ft | 379 kts | 21° |
| 2026-05-07 14:24 | 54.15547 | -5.96225 | 20596 ft | 375 kts | 21° |
| 2026-05-07 14:24 | 54.17926 | -5.94321 | 20241 ft | 372 kts | 21° |
| 2026-05-07 14:25 | 54.20250 | -5.92472 | 19890 ft | 368 kts | 21° |
| 2026-05-07 14:25 | 54.22535 | -5.90637 | 19542 ft | 365 kts | 21° |
| 2026-05-07 14:25 | 54.24852 | -5.88762 | 19187 ft | 364 kts | 21° |
| 2026-05-07 14:25 | 54.27149 | -5.86897 | 18833 ft | 363 kts | 21° |
| 2026-05-07 14:26 | 54.29409 | -5.85026 | 18483 ft | 362 kts | 22° |
| 2026-05-07 14:26 | 54.31664 | -5.83120 | 18132 ft | 360 kts | 22° |
| 2026-05-07 14:26 | 54.33891 | -5.81227 | 17782 ft | 357 kts | 22° |
| 2026-05-07 14:26 | 54.36112 | -5.79338 | 17430 ft | 353 kts | 22° |
| 2026-05-07 14:27 | 54.38300 | -5.77482 | 17127 ft | 349 kts | 22° |
| 2026-05-07 14:27 | 54.40458 | -5.75656 | 17016 ft | 346 kts | 22° |
| 2026-05-07 14:27 | 54.42645 | -5.73813 | 16997 ft | 351 kts | 22° |
| 2026-05-07 14:27 | 54.44818 | -5.71993 | 16995 ft | 351 kts | 22° |
| 2026-05-07 14:28 | 54.47042 | -5.70143 | 16995 ft | 352 kts | 22° |
| 2026-05-07 14:28 | 54.49252 | -5.68317 | 16996 ft | 353 kts | 21° |
| 2026-05-07 14:28 | 54.51451 | -5.66513 | 16995 ft | 352 kts | 21° |
| 2026-05-07 14:28 | 54.53669 | -5.64706 | 16997 ft | 352 kts | 21° |
| 2026-05-07 14:29 | 54.55880 | -5.62902 | 16996 ft | 352 kts | 21° |
| 2026-05-07 14:29 | 54.58082 | -5.61063 | 16997 ft | 354 kts | 22° |
| 2026-05-07 14:29 | 54.60255 | -5.58924 | 16998 ft | 358 kts | 30° |
| 2026-05-07 14:29 | 54.62211 | -5.56303 | 16998 ft | 359 kts | 36° |
| 2026-05-07 14:30 | 54.64088 | -5.53422 | 17000 ft | 360 kts | 38° |
| 2026-05-07 14:30 | 54.65946 | -5.50479 | 16999 ft | 362 kts | 39° |
| 2026-05-07 14:30 | 54.67775 | -5.47558 | 16999 ft | 356 kts | 39° |
| 2026-05-07 14:30 | 54.69568 | -5.44676 | 16998 ft | 341 kts | 39° |
| 2026-05-07 14:31 | 54.71294 | -5.41927 | 16998 ft | 328 kts | 38° |
| 2026-05-07 14:31 | 54.72945 | -5.39348 | 16998 ft | 319 kts | 37° |
| 2026-05-07 14:31 | 54.74582 | -5.36799 | 16998 ft | 318 kts | 37° |
| 2026-05-07 14:31 | 54.76237 | -5.34230 | 16998 ft | 319 kts | 37° |
| 2026-05-07 14:32 | 54.77915 | -5.31639 | 16997 ft | 320 kts | 37° |
| 2026-05-07 14:32 | 54.79588 | -5.29106 | 16809 ft | 318 kts | 36° |
| 2026-05-07 14:32 | 54.81274 | -5.26593 | 16275 ft | 323 kts | 36° |
| 2026-05-07 14:32 | 54.82945 | -5.24110 | 16054 ft | 316 kts | 36° |
| 2026-05-07 14:33 | 54.84596 | -5.21648 | 15998 ft | 309 kts | 36° |
| 2026-05-07 14:33 | 54.86259 | -5.19158 | 15995 ft | 315 kts | 37° |
| 2026-05-07 14:33 | 54.87923 | -5.16641 | 15997 ft | 319 kts | 35° |
| 2026-05-07 14:33 | 54.89703 | -5.14465 | 15998 ft | 314 kts | 27° |
| 2026-05-07 14:34 | 54.91605 | -5.12664 | 15997 ft | 311 kts | 22° |
| 2026-05-07 14:34 | 54.93569 | -5.11012 | 15997 ft | 309 kts | 21° |
| 2026-05-07 14:34 | 54.95498 | -5.09436 | 15996 ft | 308 kts | 20° |
| 2026-05-07 14:34 | 54.97449 | -5.07846 | 15996 ft | 308 kts | 20° |
| 2026-05-07 14:35 | 54.99384 | -5.06257 | 15786 ft | 306 kts | 21° |
| 2026-05-07 14:35 | 55.01321 | -5.04647 | 15163 ft | 313 kts | 21° |
| 2026-05-07 14:35 | 55.03280 | -5.03014 | 14735 ft | 312 kts | 21° |
| 2026-05-07 14:35 | 55.05240 | -5.01370 | 14365 ft | 310 kts | 21° |
| 2026-05-07 14:36 | 55.07200 | -4.99715 | 14063 ft | 306 kts | 21° |
| 2026-05-07 14:36 | 55.09076 | -4.98097 | 13745 ft | 302 kts | 22° |
| 2026-05-07 14:36 | 55.10935 | -4.96435 | 13344 ft | 302 kts | 22° |
| 2026-05-07 14:36 | 55.12800 | -4.94752 | 13010 ft | 299 kts | 22° |
| 2026-05-07 14:37 | 55.14654 | -4.93072 | 12676 ft | 296 kts | 22° |
| 2026-05-07 14:37 | 55.18308 | -4.89786 | 11947 ft | 293 kts | 22° |
| 2026-05-07 14:37 | 55.20105 | -4.88209 | 11577 ft | 292 kts | 22° |
| 2026-05-07 14:38 | 55.21923 | -4.86615 | 11213 ft | 291 kts | 21° |
| 2026-05-07 14:38 | 55.23714 | -4.85044 | 10922 ft | 287 kts | 22° |
| 2026-05-07 14:38 | 55.25509 | -4.83467 | 10595 ft | 284 kts | 22° |
| 2026-05-07 14:38 | 55.27261 | -4.81930 | 10218 ft | 284 kts | 21° |
| 2026-05-07 14:39 | 55.29032 | -4.80373 | 9841 ft | 284 kts | 21° |
| 2026-05-07 14:39 | 55.30772 | -4.78783 | 9481 ft | 285 kts | 25° |
| 2026-05-07 14:39 | 55.32368 | -4.76571 | 9117 ft | 289 kts | 39° |
| 2026-05-07 14:39 | 55.33709 | -4.73983 | 8734 ft | 292 kts | 45° |
| 2026-05-07 14:40 | 55.34987 | -4.71209 | 8348 ft | 293 kts | 47° |
| 2026-05-07 14:40 | 55.36252 | -4.68388 | 8122 ft | 288 kts | 47° |
| 2026-05-07 14:40 | 55.37477 | -4.65643 | 8024 ft | 284 kts | 47° |
| 2026-05-07 14:40 | 55.38684 | -4.62927 | 8002 ft | 284 kts | 47° |
| 2026-05-07 14:41 | 55.39899 | -4.60181 | 7913 ft | 277 kts | 47° |
| 2026-05-07 14:41 | 55.41062 | -4.57554 | 7761 ft | 269 kts | 47° |
| 2026-05-07 14:41 | 55.42221 | -4.54959 | 7528 ft | 265 kts | 46° |
| 2026-05-07 14:41 | 55.43352 | -4.52422 | 7248 ft | 263 kts | 46° |
| 2026-05-07 14:42 | 55.44477 | -4.49904 | 6940 ft | 262 kts | 46° |
| 2026-05-07 14:42 | 55.45617 | -4.47354 | 6627 ft | 261 kts | 46° |
| 2026-05-07 14:42 | 55.46723 | -4.44882 | 6329 ft | 260 kts | 46° |
| 2026-05-07 14:42 | 55.47858 | -4.42389 | 6030 ft | 259 kts | 46° |
| 2026-05-07 14:43 | 55.48618 | -4.40750 | 5833 ft | 259 kts | 45° |
| 2026-05-07 14:43 | 55.49776 | -4.38257 | 5538 ft | 257 kts | 45° |
| 2026-05-07 14:43 | 55.50899 | -4.35839 | 5292 ft | 254 kts | 45° |
| 2026-05-07 14:43 | 55.52011 | -4.33439 | 5039 ft | 251 kts | 45° |
| 2026-05-07 14:44 | 55.53126 | -4.31036 | 4724 ft | 251 kts | 45° |
| 2026-05-07 14:44 | 55.53869 | -4.29437 | 4517 ft | 251 kts | 45° |
| 2026-05-07 14:44 | 55.54884 | -4.27253 | 4243 ft | 251 kts | 45° |
| 2026-05-07 14:44 | 55.55977 | -4.24906 | 3962 ft | 250 kts | 45° |
| 2026-05-07 14:45 | 55.57098 | -4.22499 | 3660 ft | 249 kts | 45° |
| 2026-05-07 14:45 | 55.58209 | -4.20118 | 3350 ft | 250 kts | 45° |
| 2026-05-07 14:45 | 55.59303 | -4.17767 | 3125 ft | 246 kts | 48° |
| 2026-05-07 14:45 | 55.60378 | -4.15434 | 3024 ft | 238 kts | 50° |
| 2026-05-07 14:46 | 55.61410 | -4.13189 | 3003 ft | 236 kts | 50° |
| 2026-05-07 14:46 | 55.62433 | -4.10922 | 3000 ft | 238 kts | 51° |
| 2026-05-07 14:46 | 55.63471 | -4.08593 | 3000 ft | 240 kts | 51° |
| 2026-05-07 14:46 | 55.64491 | -4.06295 | 3001 ft | 241 kts | 51° |
| 2026-05-07 14:47 | 55.65542 | -4.03924 | 3001 ft | 241 kts | 51° |
| 2026-05-07 14:47 | 55.66592 | -4.01551 | 3000 ft | 241 kts | 51° |
| 2026-05-07 14:47 | 55.67618 | -3.99225 | 2999 ft | 241 kts | 51° |
| 2026-05-07 14:47 | 55.68704 | -3.96865 | 2997 ft | 241 kts | 45° |
| 2026-05-07 14:48 | 55.70072 | -3.95357 | 2996 ft | 239 kts | 18° |
| 2026-05-07 14:48 | 55.71719 | -3.95176 | 2999 ft | 238 kts | 353° |
| 2026-05-07 14:48 | 55.73324 | -3.95896 | 2999 ft | 238 kts | 341° |
| 2026-05-07 14:48 | 55.74882 | -3.96931 | 2998 ft | 238 kts | 338° |
| 2026-05-07 14:49 | 55.76412 | -3.98045 | 2998 ft | 238 kts | 337° |
| 2026-05-07 14:49 | 55.77954 | -3.99182 | 2997 ft | 238 kts | 337° |
| 2026-05-07 14:49 | 55.79481 | -4.00312 | 2996 ft | 238 kts | 337° |
| 2026-05-07 14:49 | 55.80988 | -4.01430 | 3144 ft | 233 kts | 336° |
| 2026-05-07 14:50 | 55.82462 | -4.02518 | 3387 ft | 218 kts | 334° |
| 2026-05-07 14:50 | 55.83872 | -4.03555 | 3640 ft | 217 kts | 334° |
| 2026-05-07 14:50 | 55.85274 | -4.04591 | 3830 ft | 222 kts | 334° |
| 2026-05-07 14:50 | 55.86730 | -4.05670 | 3666 ft | 228 kts | 334° |
| 2026-05-07 14:51 | 55.88189 | -4.06749 | 3404 ft | 226 kts | 334° |
| 2026-05-07 14:51 | 55.89643 | -4.07816 | 3157 ft | 225 kts | 336° |
| 2026-05-07 14:51 | 55.91125 | -4.08849 | 3034 ft | 228 kts | 338° |
| 2026-05-07 14:51 | 55.92617 | -4.09862 | 3004 ft | 228 kts | 339° |
| 2026-05-07 14:52 | 55.94075 | -4.10851 | 2999 ft | 227 kts | 339° |
| 2026-05-07 14:52 | 55.95574 | -4.11870 | 2998 ft | 227 kts | 339° |
| 2026-05-07 14:52 | 55.97028 | -4.12862 | 2997 ft | 227 kts | 339° |
| 2026-05-07 14:52 | 55.98430 | -4.14173 | 2995 ft | 226 kts | 322° |
| 2026-05-07 14:53 | 55.99400 | -4.16396 | 3000 ft | 226 kts | 296° |
| 2026-05-07 14:53 | 55.99632 | -4.19133 | 2991 ft | 227 kts | 264° |
| 2026-05-07 14:53 | 55.99083 | -4.21762 | 3020 ft | 222 kts | 244° |
| 2026-05-07 14:53 | 55.98163 | -4.23808 | 2888 ft | 207 kts | 225° |
| 2026-05-07 14:54 | 55.97066 | -4.25432 | 2595 ft | 200 kts | 220° |
| 2026-05-07 14:54 | 55.96041 | -4.27035 | 2336 ft | 193 kts | 223° |
| 2026-05-07 14:54 | 55.95055 | -4.28641 | 2079 ft | 187 kts | 224° |
| 2026-05-07 14:54 | 55.94123 | -4.30265 | 1829 ft | 183 kts | 226° |
| 2026-05-07 14:55 | 55.93255 | -4.31846 | 1600 ft | 179 kts | 227° |
| 2026-05-07 14:55 | 55.92411 | -4.33495 | 1357 ft | 177 kts | 230° |
| 2026-05-07 14:55 | 55.91616 | -4.35107 | 1135 ft | 172 kts | 229° |
| 2026-05-07 14:55 | 55.90810 | -4.36635 | 898 ft | 167 kts | 227° |
| 2026-05-07 14:56 | 55.90004 | -4.38105 | 682 ft | 163 kts | 227° |
| 2026-05-07 14:56 | 55.89224 | -4.39550 | 467 ft | 161 kts | 227° |
| 2026-05-07 14:56 | 55.88450 | -4.40992 | 254 ft | 160 kts | 227° |
| 2026-05-07 14:56 | 55.87689 | -4.42404 | 55 ft | 159 kts | 227° |
| 2026-05-07 14:57 | 55.86944 | -4.43750 | 40 ft | 137 kts | 230° |
| 2026-05-07 14:57 | 55.86465 | -4.44686 | 40 ft | 63 kts | 231° |
| 2026-05-07 14:57 | 55.86348 | -4.44839 | 40 ft | 2 kts | 169° |
| 2026-05-07 14:57 | 55.86322 | -4.44818 | 40 ft | 5 kts | 147° |
| 2026-05-07 14:58 | 55.86306 | -4.44797 | 40 ft | 2 kts | 141° |
| 2026-05-07 14:58 | 55.86302 | -4.44791 | 40 ft | 0 kts | 141° |
| 2026-05-07 14:58 | 55.86279 | -4.44754 | 40 ft | 5 kts | 136° |
| 2026-05-07 14:59 | 55.86256 | -4.44706 | 40 ft | 3 kts | 114° |
| 2026-05-07 14:59 | 55.86269 | -4.44614 | 40 ft | 9 kts | 45° |
| 2026-05-07 14:59 | 55.86303 | -4.44553 | 40 ft | 6 kts | 46° |
| 2026-05-07 14:59 | 55.86325 | -4.44511 | 40 ft | 3 kts | 46° |
| 2026-05-07 15:00 | 55.86336 | -4.44491 | 40 ft | 1 kts | 46° |
| 2026-05-07 15:00 | 55.86364 | -4.44440 | 40 ft | 10 kts | 46° |
| 2026-05-07 15:00 | 55.86430 | -4.44318 | 40 ft | 16 kts | 46° |
| 2026-05-07 15:00 | 55.86478 | -4.44231 | 40 ft | 14 kts | 46° |
| 2026-05-07 15:01 | 55.86540 | -4.44096 | 40 ft | 6 kts | 90° |
| 2026-05-07 15:01 | 55.86539 | -4.44058 | 40 ft | 4 kts | 101° |
| 2026-05-07 15:01 | 55.86526 | -4.44013 | 40 ft | 3 kts | 140° |
| 2026-05-07 15:01 | 55.86513 | -4.43996 | 40 ft | 2 kts | 145° |
| 2026-05-07 15:02 | 55.86500 | -4.43984 | 40 ft | 4 kts | 149° |
| 2026-05-07 15:02 | 55.86494 | -4.43968 | 40 ft | 3 kts | 109° |
| 2026-05-07 15:02 | 55.86495 | -4.43911 | 40 ft | 5 kts | 76° |
| 2026-05-07 15:02 | 55.86504 | -4.43866 | 40 ft | 2 kts | 66° |
| 2026-05-07 15:03 | 55.86511 | -4.43839 | 40 ft | 4 kts | 64° |
| 2026-05-07 15:03 | 55.86512 | -4.43834 | 40 ft | 0 kts | 64° |